sensor_id;sensor_type;location;lat;lon;timestamp;pressure;altitude;pressure_sealevel;temperature;humidity
73316;BME280;61545;53.726;-0.444;2023-05-09T00:01:12;1007.8;;;13.2;100.0
73316;BME280;61545;53.726;-0.444;2023-05-09T00:06:08;1007.8;;;13.2;100.0
73316;BME280;61545;53.726;-0.444;2023-05-09T00:11:19;1007.8;;;13.2;100.0
73316;BME280;61545;53.726;-0.444;2023-05-09T00:16:17;1007.8;;;13.2;100.0
73316;BME280;61545;53.726;-0.444;2023-05-09T00:21:11;1007.8;;;unknown;100.0
73316;BME280;61545;53.726;-0.444;2023-05-09T00:26:11;1007.7;;;13.2;100.0
73316;BME280;61545;53.726;-0.444;2023-05-09T00:31:21;1007.7;;;13.2;100.0
73316;BME280;61545;53.726;-0.444;2023-05-09T00:36:21;1007.5;;;13.2;100.0
73316;BME280;61545;53.726;-0.444;2023-05-09T00:41:11;1007.5;;;13.1;100.0
73316;BME280;61545;53.726;-0.444;2023-05-09T00:46:22;1007.5;;;13.2;100.0
73316;BME280;61545;53.726;-0.444;2023-05-09T00:51:20;1007.5;;;unknown;100.0
73316;BME280;61545;53.726;-0.444;2023-05-09T00:56:09;1007.5;;;13.2;100.0
73316;BME280;61545;53.726;-0.444;2023-05-09T01:01:10;1007.4;;;13.2;100.0
73316;BME280;61545;53.726;-0.444;2023-05-09T01:06:14;1007.4;;;13.1;100.0
73316;BME280;61545;53.726;-0.444;2023-05-09T01:11:12;1007.3;;;13.1;100.0
73316;BME280;61545;53.726;-0.444;2023-05-09T01:16:11;1007.2;;;13.2;100.0
73316;BME280;61545;53.726;-0.444;2023-05-09T01:21:14;1007.2;;;13.0;100.0
73316;BME280;61545;53.726;-0.444;2023-05-09T01:26:24;1007.1;;;13.0;100.0
73316;BME280;61545;53.726;-0.444;2023-05-09T01:31:21;1007.1;;;13.1;100.0
73316;BME280;61545;53.726;-0.444;2023-05-09T01:36:14;1007.0;;;13.0;100.0
73316;BME280;61545;53.726;-0.444;2023-05-09T01:41:20;1006.8;;;13.0;100.0
73316;BME280;61545;53.726;-0.444;2023-05-09T01:46:10;1006.7;;;13.0;100.0
73316;BME280;61545;53.726;-0.444;2023-05-09T01:51:08;1006.7;;;13.0;100.0
73316;BME280;61545;53.726;-0.444;2023-05-09T01:56:08;1006.7;;;13.0;100.0
73316;BME280;61545;53.726;-0.444;2023-05-09T02:01:11;1006.7;;;12.9;100.0
73316;BME280;61545;53.726;-0.444;2023-05-09T02:06:11;1006.6;;;12.9;100.0
73316;BME280;61545;53.726;-0.444;2023-05-09T02:11:13;1006.6;;;unknown;100.0
73316;BME280;61545;53.726;-0.444;2023-05-09T02:16:10;1006.7;;;12.8;100.0
73316;BME280;61545;53.726;-0.444;2023-05-09T02:21:10;1006.6;;;12.7;100.0
73316;BME280;61545;53.726;-0.444;2023-05-09T02:26:10;1006.6;;;12.7;100.0
73316;BME280;61545;53.726;-0.444;2023-05-09T02:31:10;1006.6;;;12.7;100.0
73316;BME280;61545;53.726;-0.444;2023-05-09T02:36:08;1006.7;;;12.6;100.0
73316;BME280;61545;53.726;-0.444;2023-05-09T02:41:14;1006.6;;;unknown;100.0
73316;BME280;61545;53.726;-0.444;2023-05-09T02:46:10;1006.6;;;12.6;100.0
73316;BME280;61545;53.726;-0.444;2023-05-09T02:51:10;1006.6;;;12.6;100.0
73316;BME280;61545;53.726;-0.444;2023-05-09T02:56:08;1006.6;;;12.6;100.0
73316;BME280;61545;53.726;-0.444;2023-05-09T03:01:08;1006.6;;;12.6;100.0
73316;BME280;61545;53.726;-0.444;2023-05-09T03:06:10;1006.7;;;12.6;100.0
73316;BME280;61545;53.726;-0.444;2023-05-09T03:11:08;1006.7;;;12.7;100.0
73316;BME280;61545;53.726;-0.444;2023-05-09T03:16:10;1006.7;;;12.6;100.0
73316;BME280;61545;53.726;-0.444;2023-05-09T03:21:08;1006.6;;;12.5;100.0
73316;BME280;61545;53.726;-0.444;2023-05-09T03:26:08;1006.6;;;12.5;100.0
73316;BME280;61545;53.726;-0.444;2023-05-09T03:31:09;1006.5;;;12.5;100.0
73316;BME280;61545;53.726;-0.444;2023-05-09T03:36:08;1006.5;;;12.4;100.0
73316;BME280;61545;53.726;-0.444;2023-05-09T03:41:08;1006.5;;;12.4;100.0
73316;BME280;61545;53.726;-0.444;2023-05-09T03:46:10;1006.4;;;12.4;100.0
73316;BME280;61545;53.726;-0.444;2023-05-09T03:51:10;1006.4;;;12.4;100.0
73316;BME280;61545;53.726;-0.444;2023-05-09T03:56:10;1006.3;;;12.3;100.0
73316;BME280;61545;53.726;-0.444;2023-05-09T04:01:10;1006.3;;;12.3;100.0
73316;BME280;61545;53.726;-0.444;2023-05-09T04:06:11;1006.3;;;12.3;100.0
73316;BME280;61545;53.726;-0.444;2023-05-09T04:11:10;1006.3;;;12.3;100.0
73316;BME280;61545;53.726;-0.444;2023-05-09T04:16:12;1006.3;;;12.3;100.0
73316;BME280;61545;53.726;-0.444;2023-05-09T04:21:10;1006.3;;;12.2;100.0
73316;BME280;61545;53.726;-0.444;2023-05-09T04:26:08;1006.2;;;12.2;100.0
73316;BME280;61545;53.726;-0.444;2023-05-09T04:31:08;1006.3;;;unknown;100.0
73316;BME280;61545;53.726;-0.444;2023-05-09T04:36:19;1006.2;;;12.2;100.0
73316;BME280;61545;53.726;-0.444;2023-05-09T04:41:11;1006.3;;;12.2;100.0
73316;BME280;61545;53.726;-0.444;2023-05-09T04:46:12;1006.3;;;12.3;100.0
73316;BME280;61545;53.726;-0.444;2023-05-09T04:51:10;1006.3;;;12.3;100.0
73316;BME280;61545;53.726;-0.444;2023-05-09T04:56:08;1006.3;;;12.3;100.0
73316;BME280;61545;53.726;-0.444;2023-05-09T05:01:10;1006.3;;;12.3;100.0
73316;BME280;61545;53.726;-0.444;2023-05-09T05:06:11;1006.3;;;12.4;100.0
73316;BME280;61545;53.726;-0.444;2023-05-09T05:11:08;1006.3;;;12.3;100.0
73316;BME280;61545;53.726;-0.444;2023-05-09T05:16:13;1006.2;;;12.4;100.0
73316;BME280;61545;53.726;-0.444;2023-05-09T05:21:08;1006.1;;;unknown;100.0
73316;BME280;61545;53.726;-0.444;2023-05-09T05:26:10;1006.1;;;12.4;100.0
73316;BME280;61545;53.726;-0.444;2023-05-09T05:31:08;1006.0;;;12.5;100.0
73316;BME280;61545;53.726;-0.444;2023-05-09T05:36:11;1005.9;;;12.5;100.0
73316;BME280;61545;53.726;-0.444;2023-05-09T05:41:11;1006.0;;;12.5;100.0
73316;BME280;61545;53.726;-0.444;2023-05-09T05:46:22;1005.9;;;12.5;100.0
73316;BME280;61545;53.726;-0.444;2023-05-09T05:51:19;1006.0;;;unknown;100.0
73316;BME280;61545;53.726;-0.444;2023-05-09T05:56:21;1005.9;;;12.6;100.0
73316;BME280;61545;53.726;-0.444;2023-05-09T06:01:19;1005.8;;;12.6;100.0
73316;BME280;61545;53.726;-0.444;2023-05-09T06:06:10;1005.7;;;12.7;100.0
73316;BME280;61545;53.726;-0.444;2023-05-09T06:11:08;1005.7;;;12.7;100.0
73316;BME280;61545;53.726;-0.444;2023-05-09T06:16:09;1005.6;;;unknown;100.0
73316;BME280;61545;53.726;-0.444;2023-05-09T06:21:11;1005.6;;;12.8;100.0
73316;BME280;61545;53.726;-0.444;2023-05-09T06:31:10;1005.6;;;12.9;100.0
73316;BME280;61545;53.726;-0.444;2023-05-09T06:36:08;1005.6;;;13.0;100.0
73316;BME280;61545;53.726;-0.444;2023-05-09T06:41:12;1005.5;;;13.0;100.0
73316;BME280;61545;53.726;-0.444;2023-05-09T06:46:08;1005.5;;;14.2;100.0
73316;BME280;61545;53.726;-0.444;2023-05-09T06:51:08;1005.3;;;unknown;100.0
73316;BME280;61545;53.726;-0.444;2023-05-09T06:56:12;1005.3;;;16.2;100.0
73316;BME280;61545;53.726;-0.444;2023-05-09T07:01:08;1005.3;;;16.5;100.0
73316;BME280;61545;53.726;-0.444;2023-05-09T07:06:08;1005.2;;;16.6;100.0
73316;BME280;61545;53.726;-0.444;2023-05-09T07:11:08;1005.3;;;16.7;100.0
73316;BME280;61545;53.726;-0.444;2023-05-09T07:16:08;1005.2;;;16.7;100.0
73316;BME280;61545;53.726;-0.444;2023-05-09T07:21:10;1005.2;;;17.2;100.0
73316;BME280;61545;53.726;-0.444;2023-05-09T07:26:10;1005.2;;;17.3;100.0
73316;BME280;61545;53.726;-0.444;2023-05-09T07:31:08;1005.1;;;18.7;100.0
73316;BME280;61545;53.726;-0.444;2023-05-09T07:36:08;1005.0;;;18.2;100.0
73316;BME280;61545;53.726;-0.444;2023-05-09T07:41:09;1005.1;;;16.4;100.0
73316;BME280;61545;53.726;-0.444;2023-05-09T07:46:08;1005.1;;;17.9;100.0
73316;BME280;61545;53.726;-0.444;2023-05-09T07:51:10;1005.1;;;17.7;100.0
73316;BME280;61545;53.726;-0.444;2023-05-09T07:56:10;1005.1;;;unknown;100.0
73316;BME280;61545;53.726;-0.444;2023-05-09T08:01:13;1005.2;;;17.2;100.0
73316;BME280;61545;53.726;-0.444;2023-05-09T08:06:10;1005.2;;;17.0;100.0
73316;BME280;61545;53.726;-0.444;2023-05-09T08:11:10;1005.2;;;17.9;100.0
73316;BME280;61545;53.726;-0.444;2023-05-09T08:16:08;1005.1;;;17.7;100.0
73316;BME280;61545;53.726;-0.444;2023-05-09T08:21:08;1005.1;;;16.5;100.0
73316;BME280;61545;53.726;-0.444;2023-05-09T08:26:08;1005.3;;;16.9;100.0
73316;BME280;61545;53.726;-0.444;2023-05-09T08:31:10;1005.4;;;16.4;100.0
73316;BME280;61545;53.726;-0.444;2023-05-09T08:36:08;1005.4;;;16.2;100.0
73316;BME280;61545;53.726;-0.444;2023-05-09T08:41:08;1005.4;;;16.2;100.0
73316;BME280;61545;53.726;-0.444;2023-05-09T08:46:21;1005.5;;;15.9;100.0
73316;BME280;61545;53.726;-0.444;2023-05-09T08:51:11;1005.5;;;16.1;100.0
73316;BME280;61545;53.726;-0.444;2023-05-09T08:56:11;1005.5;;;16.8;100.0
73316;BME280;61545;53.726;-0.444;2023-05-09T09:01:23;1005.5;;;17.2;100.0
73316;BME280;61545;53.726;-0.444;2023-05-09T09:06:11;1005.4;;;16.7;100.0
73316;BME280;61545;53.726;-0.444;2023-05-09T09:11:11;1005.4;;;16.5;100.0
73316;BME280;61545;53.726;-0.444;2023-05-09T09:16:08;1005.4;;;16.4;100.0
73316;BME280;61545;53.726;-0.444;2023-05-09T09:21:11;1005.4;;;16.7;100.0
73316;BME280;61545;53.726;-0.444;2023-05-09T09:26:08;1005.4;;;16.6;100.0
73316;BME280;61545;53.726;-0.444;2023-05-09T09:31:30;1005.4;;;17.0;100.0
73316;BME280;61545;53.726;-0.444;2023-05-09T09:36:26;1005.4;;;16.9;100.0
73316;BME280;61545;53.726;-0.444;2023-05-09T09:41:41;1005.3;;;17.3;100.0
73316;BME280;61545;53.726;-0.444;2023-05-09T09:46:11;1005.2;;;17.8;100.0
73316;BME280;61545;53.726;-0.444;2023-05-09T09:51:19;1005.0;;;unknown;100.0
73316;BME280;61545;53.726;-0.444;2023-05-09T09:56:11;1004.9;;;18.4;100.0
73316;BME280;61545;53.726;-0.444;2023-05-09T10:01:11;1004.9;;;18.3;100.0
73316;BME280;61545;53.726;-0.444;2023-05-09T10:06:27;1004.8;;;unknown;100.0
73316;BME280;61545;53.726;-0.444;2023-05-09T10:11:29;1004.8;;;unknown;100.0
73316;BME280;61545;53.726;-0.444;2023-05-09T10:16:20;1004.7;;;18.5;100.0
73316;BME280;61545;53.726;-0.444;2023-05-09T10:21:10;1004.8;;;18.9;100.0
73316;BME280;61545;53.726;-0.444;2023-05-09T10:26:15;1004.8;;;unknown;100.0
73316;BME280;61545;53.726;-0.444;2023-05-09T10:31:22;1004.8;;;19.1;100.0
73316;BME280;61545;53.726;-0.444;2023-05-09T10:36:27;1004.7;;;19.1;100.0
73316;BME280;61545;53.726;-0.444;2023-05-09T10:41:11;1004.6;;;19.1;100.0
73316;BME280;61545;53.726;-0.444;2023-05-09T10:46:21;1004.6;;;18.8;100.0
73316;BME280;61545;53.726;-0.444;2023-05-09T10:51:21;1004.5;;;18.7;100.0
73316;BME280;61545;53.726;-0.444;2023-05-09T10:56:23;1004.5;;;unknown;100.0
73316;BME280;61545;53.726;-0.444;2023-05-09T11:01:10;1004.5;;;20.5;100.0
73316;BME280;61545;53.726;-0.444;2023-05-09T11:06:08;1004.5;;;19.3;100.0
73316;BME280;61545;53.726;-0.444;2023-05-09T11:11:28;1004.4;;;unknown;100.0
73316;BME280;61545;53.726;-0.444;2023-05-09T11:16:11;1004.4;;;18.8;100.0
73316;BME280;61545;53.726;-0.444;2023-05-09T11:21:22;1004.4;;;19.3;100.0
73316;BME280;61545;53.726;-0.444;2023-05-09T11:26:13;1004.3;;;19.9;100.0
73316;BME280;61545;53.726;-0.444;2023-05-09T11:31:12;1004.2;;;19.3;100.0
73316;BME280;61545;53.726;-0.444;2023-05-09T11:36:19;1004.2;;;19.8;100.0
73316;BME280;61545;53.726;-0.444;2023-05-09T11:41:08;1004.2;;;19.3;100.0
73316;BME280;61545;53.726;-0.444;2023-05-09T11:46:11;1004.2;;;19.6;100.0
73316;BME280;61545;53.726;-0.444;2023-05-09T11:51:22;1004.1;;;19.4;100.0
73316;BME280;61545;53.726;-0.444;2023-05-09T11:56:20;1004.1;;;19.7;100.0
73316;BME280;61545;53.726;-0.444;2023-05-09T12:01:11;1004.1;;;19.9;100.0
73316;BME280;61545;53.726;-0.444;2023-05-09T12:06:16;1004.0;;;19.8;100.0
73316;BME280;61545;53.726;-0.444;2023-05-09T12:11:08;1004.0;;;19.9;100.0
73316;BME280;61545;53.726;-0.444;2023-05-09T12:16:19;1004.0;;;19.5;100.0
73316;BME280;61545;53.726;-0.444;2023-05-09T12:21:11;1003.9;;;unknown;100.0
73316;BME280;61545;53.726;-0.444;2023-05-09T12:26:09;1003.9;;;19.1;100.0
73316;BME280;61545;53.726;-0.444;2023-05-09T12:31:10;1003.9;;;19.1;100.0
73316;BME280;61545;53.726;-0.444;2023-05-09T12:36:12;1003.8;;;19.9;100.0
73316;BME280;61545;53.726;-0.444;2023-05-09T12:41:20;1003.8;;;19.7;100.0
73316;BME280;61545;53.726;-0.444;2023-05-09T12:46:11;1003.7;;;unknown;100.0
73316;BME280;61545;53.726;-0.444;2023-05-09T12:51:10;1003.7;;;19.7;100.0
73316;BME280;61545;53.726;-0.444;2023-05-09T12:56:13;1003.7;;;19.0;100.0
73316;BME280;61545;53.726;-0.444;2023-05-09T13:01:19;1003.7;;;19.6;100.0
73316;BME280;61545;53.726;-0.444;2023-05-09T13:06:20;1003.6;;;19.8;100.0
73316;BME280;61545;53.726;-0.444;2023-05-09T13:11:19;1003.5;;;20.0;100.0
73316;BME280;61545;53.726;-0.444;2023-05-09T13:16:11;1003.5;;;19.7;100.0
73316;BME280;61545;53.726;-0.444;2023-05-09T13:21:20;1003.5;;;19.9;100.0
73316;BME280;61545;53.726;-0.444;2023-05-09T13:26:11;1003.4;;;20.0;100.0
73316;BME280;61545;53.726;-0.444;2023-05-09T13:31:11;1003.5;;;20.0;100.0
73316;BME280;61545;53.726;-0.444;2023-05-09T13:36:29;1003.5;;;unknown;100.0
73316;BME280;61545;53.726;-0.444;2023-05-09T13:41:29;1003.6;;;19.6;100.0
73316;BME280;61545;53.726;-0.444;2023-05-09T13:46:11;1003.6;;;19.7;100.0
73316;BME280;61545;53.726;-0.444;2023-05-09T13:51:10;1003.6;;;19.4;100.0
73316;BME280;61545;53.726;-0.444;2023-05-09T13:56:12;1003.5;;;unknown;100.0
73316;BME280;61545;53.726;-0.444;2023-05-09T14:01:11;1003.5;;;18.9;100.0
73316;BME280;61545;53.726;-0.444;2023-05-09T14:06:23;1003.5;;;19.1;100.0
73316;BME280;61545;53.726;-0.444;2023-05-09T14:11:08;1003.5;;;19.2;100.0
73316;BME280;61545;53.726;-0.444;2023-05-09T14:16:08;1003.5;;;19.1;100.0
73316;BME280;61545;53.726;-0.444;2023-05-09T14:21:10;1003.5;;;18.9;100.0
73316;BME280;61545;53.726;-0.444;2023-05-09T14:26:08;1003.5;;;18.7;100.0
73316;BME280;61545;53.726;-0.444;2023-05-09T14:31:22;1003.5;;;unknown;100.0
73316;BME280;61545;53.726;-0.444;2023-05-09T14:36:11;1003.4;;;18.4;100.0
73316;BME280;61545;53.726;-0.444;2023-05-09T14:41:21;1003.5;;;18.2;100.0
73316;BME280;61545;53.726;-0.444;2023-05-09T14:46:11;1003.5;;;18.4;100.0
73316;BME280;61545;53.726;-0.444;2023-05-09T14:51:12;1003.5;;;18.2;100.0
73316;BME280;61545;53.726;-0.444;2023-05-09T14:56:08;1003.5;;;17.9;100.0
73316;BME280;61545;53.726;-0.444;2023-05-09T15:01:10;1003.6;;;17.7;100.0
73316;BME280;61545;53.726;-0.444;2023-05-09T15:06:11;1003.6;;;unknown;100.0
73316;BME280;61545;53.726;-0.444;2023-05-09T15:11:23;1003.6;;;17.2;100.0
73316;BME280;61545;53.726;-0.444;2023-05-09T15:16:10;1004.0;;;16.9;100.0
73316;BME280;61545;53.726;-0.444;2023-05-09T15:21:10;1004.1;;;unknown;100.0
73316;BME280;61545;53.726;-0.444;2023-05-09T15:26:08;1004.0;;;16.7;100.0
73316;BME280;61545;53.726;-0.444;2023-05-09T15:31:13;1004.0;;;16.7;100.0
73316;BME280;61545;53.726;-0.444;2023-05-09T15:36:19;1004.0;;;16.9;100.0
73316;BME280;61545;53.726;-0.444;2023-05-09T15:41:19;1003.9;;;16.9;100.0
73316;BME280;61545;53.726;-0.444;2023-05-09T15:46:09;1003.9;;;16.7;100.0
73316;BME280;61545;53.726;-0.444;2023-05-09T15:51:08;1003.9;;;16.6;100.0
73316;BME280;61545;53.726;-0.444;2023-05-09T15:56:12;1003.9;;;16.4;100.0
73316;BME280;61545;53.726;-0.444;2023-05-09T16:01:08;1004.0;;;unknown;100.0
73316;BME280;61545;53.726;-0.444;2023-05-09T16:06:13;1003.9;;;16.3;100.0
73316;BME280;61545;53.726;-0.444;2023-05-09T16:11:12;1003.9;;;16.4;100.0
73316;BME280;61545;53.726;-0.444;2023-05-09T16:16:08;1003.9;;;16.2;100.0
73316;BME280;61545;53.726;-0.444;2023-05-09T16:21:08;1003.9;;;16.5;100.0
73316;BME280;61545;53.726;-0.444;2023-05-09T16:26:08;1003.9;;;16.4;100.0
73316;BME280;61545;53.726;-0.444;2023-05-09T16:31:12;1003.9;;;16.1;100.0
73316;BME280;61545;53.726;-0.444;2023-05-09T16:36:20;1003.9;;;unknown;100.0
73316;BME280;61545;53.726;-0.444;2023-05-09T16:41:10;1003.9;;;16.4;100.0
73316;BME280;61545;53.726;-0.444;2023-05-09T16:46:10;1004.0;;;unknown;100.0
73316;BME280;61545;53.726;-0.444;2023-05-09T16:51:12;1003.9;;;16.1;100.0
73316;BME280;61545;53.726;-0.444;2023-05-09T16:56:11;1003.9;;;16.0;100.0
73316;BME280;61545;53.726;-0.444;2023-05-09T17:01:11;1004.0;;;16.1;100.0
73316;BME280;61545;53.726;-0.444;2023-05-09T17:06:10;1004.0;;;16.4;100.0
73316;BME280;61545;53.726;-0.444;2023-05-09T17:11:08;1004.0;;;16.0;100.0
73316;BME280;61545;53.726;-0.444;2023-05-09T17:16:08;1004.1;;;16.0;100.0
73316;BME280;61545;53.726;-0.444;2023-05-09T17:21:10;1004.1;;;unknown;100.0
73316;BME280;61545;53.726;-0.444;2023-05-09T17:26:10;1004.1;;;15.8;100.0
73316;BME280;61545;53.726;-0.444;2023-05-09T17:31:08;1004.0;;;15.7;100.0
73316;BME280;61545;53.726;-0.444;2023-05-09T17:36:12;1004.0;;;15.8;100.0
73316;BME280;61545;53.726;-0.444;2023-05-09T17:41:19;1004.1;;;15.6;100.0
73316;BME280;61545;53.726;-0.444;2023-05-09T17:46:22;1004.1;;;15.5;100.0
73316;BME280;61545;53.726;-0.444;2023-05-09T17:51:08;1004.1;;;15.2;100.0
73316;BME280;61545;53.726;-0.444;2023-05-09T17:56:08;1004.1;;;15.0;100.0
73316;BME280;61545;53.726;-0.444;2023-05-09T18:01:12;1004.1;;;15.0;100.0
73316;BME280;61545;53.726;-0.444;2023-05-09T18:06:10;1004.1;;;14.9;100.0
73316;BME280;61545;53.726;-0.444;2023-05-09T18:11:10;1004.1;;;14.8;100.0
73316;BME280;61545;53.726;-0.444;2023-05-09T18:16:10;1004.2;;;14.5;100.0
73316;BME280;61545;53.726;-0.444;2023-05-09T18:21:12;1004.1;;;14.7;100.0
73316;BME280;61545;53.726;-0.444;2023-05-09T18:26:19;1004.1;;;14.6;100.0
73316;BME280;61545;53.726;-0.444;2023-05-09T18:31:21;1004.2;;;14.4;100.0
73316;BME280;61545;53.726;-0.444;2023-05-09T18:36:20;1004.2;;;14.4;100.0
73316;BME280;61545;53.726;-0.444;2023-05-09T18:41:20;1004.3;;;14.4;100.0
73316;BME280;61545;53.726;-0.444;2023-05-09T18:46:21;1004.3;;;14.4;100.0
73316;BME280;61545;53.726;-0.444;2023-05-09T18:51:11;1004.2;;;14.4;100.0
73316;BME280;61545;53.726;-0.444;2023-05-09T18:56:11;1004.3;;;14.3;100.0
73316;BME280;61545;53.726;-0.444;2023-05-09T19:01:23;1004.4;;;14.2;100.0
73316;BME280;61545;53.726;-0.444;2023-05-09T19:06:13;1004.5;;;14.2;100.0
73316;BME280;61545;53.726;-0.444;2023-05-09T19:11:10;1004.5;;;unknown;100.0
73316;BME280;61545;53.726;-0.444;2023-05-09T19:16:09;1004.6;;;14.1;100.0
73316;BME280;61545;53.726;-0.444;2023-05-09T19:21:11;1004.6;;;14.1;100.0
73316;BME280;61545;53.726;-0.444;2023-05-09T19:26:11;1004.7;;;14.1;100.0
73316;BME280;61545;53.726;-0.444;2023-05-09T19:31:22;1004.8;;;14.4;100.0
73316;BME280;61545;53.726;-0.444;2023-05-09T19:36:11;1004.8;;;14.4;100.0
73316;BME280;61545;53.726;-0.444;2023-05-09T19:41:11;1004.8;;;14.4;100.0
73316;BME280;61545;53.726;-0.444;2023-05-09T19:46:16;1004.9;;;14.4;100.0
73316;BME280;61545;53.726;-0.444;2023-05-09T19:51:08;1004.7;;;14.0;100.0
73316;BME280;61545;53.726;-0.444;2023-05-09T19:56:08;1004.7;;;14.0;100.0
73316;BME280;61545;53.726;-0.444;2023-05-09T20:01:10;1004.8;;;13.9;100.0
73316;BME280;61545;53.726;-0.444;2023-05-09T20:06:10;1004.8;;;13.8;100.0
73316;BME280;61545;53.726;-0.444;2023-05-09T20:11:13;1004.9;;;13.6;100.0
73316;BME280;61545;53.726;-0.444;2023-05-09T20:16:13;1004.9;;;13.6;100.0
73316;BME280;61545;53.726;-0.444;2023-05-09T20:21:08;1004.9;;;13.5;100.0
73316;BME280;61545;53.726;-0.444;2023-05-09T20:26:08;1004.9;;;13.6;100.0
73316;BME280;61545;53.726;-0.444;2023-05-09T20:31:13;1004.8;;;13.4;100.0
73316;BME280;61545;53.726;-0.444;2023-05-09T20:36:08;1004.7;;;13.4;100.0
73316;BME280;61545;53.726;-0.444;2023-05-09T20:41:08;1004.7;;;13.5;100.0
73316;BME280;61545;53.726;-0.444;2023-05-09T20:46:21;1004.7;;;13.4;100.0
73316;BME280;61545;53.726;-0.444;2023-05-09T20:51:11;1004.8;;;13.5;100.0
73316;BME280;61545;53.726;-0.444;2023-05-09T20:56:22;1004.9;;;13.6;100.0
73316;BME280;61545;53.726;-0.444;2023-05-09T21:01:32;1004.9;;;13.6;100.0
73316;BME280;61545;53.726;-0.444;2023-05-09T21:06:09;1004.9;;;13.5;100.0
73316;BME280;61545;53.726;-0.444;2023-05-09T21:11:08;1004.9;;;13.3;100.0
73316;BME280;61545;53.726;-0.444;2023-05-09T21:16:10;1004.9;;;13.5;100.0
73316;BME280;61545;53.726;-0.444;2023-05-09T21:21:11;1004.8;;;13.5;100.0
73316;BME280;61545;53.726;-0.444;2023-05-09T21:26:11;1004.8;;;13.4;100.0
73316;BME280;61545;53.726;-0.444;2023-05-09T21:31:11;1004.7;;;13.2;100.0
73316;BME280;61545;53.726;-0.444;2023-05-09T21:36:27;1004.7;;;13.3;100.0
73316;BME280;61545;53.726;-0.444;2023-05-09T21:41:08;1004.7;;;13.2;100.0
73316;BME280;61545;53.726;-0.444;2023-05-09T21:46:14;1004.7;;;13.1;100.0
73316;BME280;61545;53.726;-0.444;2023-05-09T21:51:08;1004.8;;;13.0;100.0
73316;BME280;61545;53.726;-0.444;2023-05-09T21:56:08;1004.8;;;12.9;100.0
73316;BME280;61545;53.726;-0.444;2023-05-09T22:01:13;1004.8;;;12.8;100.0
73316;BME280;61545;53.726;-0.444;2023-05-09T22:06:19;1004.9;;;12.9;100.0
73316;BME280;61545;53.726;-0.444;2023-05-09T22:11:11;1004.8;;;13.0;100.0
73316;BME280;61545;53.726;-0.444;2023-05-09T22:16:11;1004.8;;;unknown;100.0
73316;BME280;61545;53.726;-0.444;2023-05-09T22:21:31;1004.8;;;12.9;100.0
73316;BME280;61545;53.726;-0.444;2023-05-09T22:26:11;1004.8;;;12.8;100.0
73316;BME280;61545;53.726;-0.444;2023-05-09T22:31:11;1004.7;;;12.7;100.0
73316;BME280;61545;53.726;-0.444;2023-05-09T22:36:10;1004.7;;;12.7;100.0
73316;BME280;61545;53.726;-0.444;2023-05-09T22:41:13;1004.7;;;12.7;100.0
73316;BME280;61545;53.726;-0.444;2023-05-09T22:46:08;1004.8;;;12.5;100.0
73316;BME280;61545;53.726;-0.444;2023-05-09T22:51:08;1004.8;;;12.4;100.0
73316;BME280;61545;53.726;-0.444;2023-05-09T22:56:10;1004.8;;;12.4;100.0
73316;BME280;61545;53.726;-0.444;2023-05-09T23:01:08;1004.7;;;12.4;100.0
73316;BME280;61545;53.726;-0.444;2023-05-09T23:06:10;1004.7;;;12.4;100.0
73316;BME280;61545;53.726;-0.444;2023-05-09T23:11:10;1004.7;;;12.4;100.0
73316;BME280;61545;53.726;-0.444;2023-05-09T23:16:11;1004.7;;;unknown;100.0
73316;BME280;61545;53.726;-0.444;2023-05-09T23:21:08;1004.7;;;12.4;100.0
73316;BME280;61545;53.726;-0.444;2023-05-09T23:26:10;1004.7;;;12.2;100.0
73316;BME280;61545;53.726;-0.444;2023-05-09T23:31:11;1004.7;;;12.2;100.0
73316;BME280;61545;53.726;-0.444;2023-05-09T23:36:10;1004.7;;;12.2;100.0
73316;BME280;61545;53.726;-0.444;2023-05-09T23:41:08;1004.8;;;12.1;100.0
73316;BME280;61545;53.726;-0.444;2023-05-09T23:46:10;1004.8;;;12.1;100.0
73316;BME280;61545;53.726;-0.444;2023-05-09T23:51:08;1004.8;;;11.9;100.0
73316;BME280;61545;53.726;-0.444;2023-05-09T23:56:11;1004.8;;;11.9;100.0
